HYL weather

Hollis Clark Bay Seaplane Base
Hollis, Alaska, United States

Public forecast

Using degrees Fahrenheit for public forecast. Weather courtesy of forecast.io.

Closest aviation weather report (METAR) to Hollis Clark Bay Seaplane Base

Closest report is Klawock Airport, 15.7 nm (29.2 km) WNW. Retrieved 2019/10/19 03:53 UTC (2 hours ago):

PAKW 190353Z AUTO 00000KT 6SM -RA BR FEW015 OVC024 07/05 A2948 RMK SLP985 P0006 T00670050 TSNO VIA AUTODIAL

Closest aviation forecast (TAF) to Hollis Clark Bay Seaplane Base

Closest forecast is Klawock Airport, 15.7 nm (29.2 km) WNW. Retrieved 2019-10-19 00:45 UTC (5 hours ago):

TAF PAKW 182342Z 1900/1924 18011KT P6SM -SHRA SCT030 OVC050 FM190900 15004KT P6SM -SHRA BKN030 OVC040 FM192100 18005KT P6SM -SHRA BKN035 BKN050